TimeCDT,TemperatureF,Dew PointF,Humidity,Sea Level PressureIn,VisibilityMPH,Wind Direction,Wind SpeedMPH,Gust SpeedMPH,PrecipitationIn,Events,Conditions,WindDirDegrees,DateUTC
12:15 AM,63.3,44.1,49,29.92,10.0,South,9.2,-,N/A,,Clear,190,2012-10-04 05:15:00
12:35 AM,63.1,44.6,51,29.92,10.0,South,9.2,-,N/A,,Clear,190,2012-10-04 05:35:00
12:55 AM,62.6,44.2,51,29.96,10.0,West,8.1,-,N/A,,Clear,280,2012-10-04 05:55:00
1:15 AM,61.3,44.2,53,29.95,10.0,SW,4.6,-,N/A,,Clear,220,2012-10-04 06:15:00
1:35 AM,61.3,43.9,53,29.96,10.0,NW,15.0,23.0,N/A,,Clear,310,2012-10-04 06:35:00
1:55 AM,61.5,42.8,50,29.98,10.0,NNW,18.4,26.5,N/A,,Clear,340,2012-10-04 06:55:00
2:15 AM,59.7,42.1,52,30.00,10.0,NNW,19.6,28.8,N/A,,Clear,330,2012-10-04 07:15:00
2:35 AM,58.5,41.9,54,30.01,10.0,NNW,16.1,26.5,N/A,,Clear,340,2012-10-04 07:35:00
2:55 AM,55.6,41.2,58,30.02,10.0,NNW,25.3,38.0,N/A,,Clear,340,2012-10-04 07:55:00
3:15 AM,54.7,41.4,61,30.04,10.0,North,20.7,31.1,N/A,,Clear,360,2012-10-04 08:15:00
3:35 AM,54.0,41.4,62,30.03,10.0,North,17.3,23.0,N/A,,Clear,360,2012-10-04 08:35:00
3:55 AM,53.6,41.7,64,30.04,10.0,North,23.0,27.6,N/A,Thunderstorm,Clear,350,2012-10-04 08:55:00
4:15 AM,52.9,42.8,69,30.07,10.0,NNW,17.3,23.0,N/A,Thunderstorm,Clear,340,2012-10-04 09:15:00
4:35 AM,52.3,43.0,70,30.09,10.0,NNW,10.4,-,N/A,,Clear,330,2012-10-04 09:35:00
4:55 AM,52.2,43.3,72,30.10,10.0,NNW,10.4,-,N/A,,Clear,340,2012-10-04 09:55:00
5:15 AM,52.2,43.3,72,30.11,10.0,NNW,11.5,21.9,N/A,,Clear,340,2012-10-04 10:15:00
5:35 AM,51.8,43.5,73,30.13,10.0,NNW,12.7,-,N/A,,Mostly Cloudy,330,2012-10-04 10:35:00
5:55 AM,50.0,43.7,79,30.13,10.0,NNW,15.0,21.9,N/A,Rain,Light Rain,340,2012-10-04 10:55:00
6:15 AM,49.3,43.7,81,30.12,10.0,North,15.0,18.4,N/A,,Mostly Cloudy,350,2012-10-04 11:15:00
6:35 AM,49.1,43.7,82,30.13,10.0,North,9.2,-,N/A,Thunderstorm,Scattered Clouds,350,2012-10-04 11:35:00
6:55 AM,48.9,41.5,76,30.13,10.0,North,20.7,27.6,N/A,Rain,Light Rain,360,2012-10-04 11:55:00
7:15 AM,47.5,41.0,78,30.14,10.0,North,18.4,24.2,N/A,Rain-Thunderstorm,Light Thunderstorms and Rain,360,2012-10-04 12:15:00
7:35 AM,46.8,41.0,80,30.17,10.0,NNW,15.0,20.7,N/A,Rain-Thunderstorm,Light Thunderstorms and Rain,340,2012-10-04 12:35:00
7:55 AM,46.4,40.5,80,30.14,10.0,North,17.3,24.2,N/A,Rain,Rain,360,2012-10-04 12:55:00
8:15 AM,46.4,40.5,80,30.18,10.0,NNW,12.7,21.9,N/A,Thunderstorm,Thunderstorm,340,2012-10-04 13:15:00
8:35 AM,46.6,40.8,80,30.20,10.0,NNW,19.6,25.3,N/A,Rain-Thunderstorm,Light Thunderstorms and Rain,330,2012-10-04 13:35:00
8:55 AM,45.9,37.9,74,30.22,10.0,NNW,20.7,26.5,N/A,Rain,Light Rain,330,2012-10-04 13:55:00
9:15 AM,45.9,36.7,70,30.23,10.0,NNW,21.9,29.9,N/A,Thunderstorm,Thunderstorm,340,2012-10-04 14:15:00
9:35 AM,45.0,37.6,75,30.19,10.0,North,17.3,21.9,N/A,Rain-Thunderstorm,Light Thunderstorms and Rain,360,2012-10-04 14:35:00
9:55 AM,45.5,37.9,75,30.25,10.0,NNW,12.7,16.1,N/A,Thunderstorm,Unknown,340,2012-10-04 14:55:00
10:15 AM,46.4,37.4,71,30.24,10.0,North,13.8,-,N/A,,Mostly Cloudy,350,2012-10-04 15:15:00
10:35 AM,47.7,37.6,68,30.26,10.0,NNW,13.8,-,N/A,Thunderstorm,Thunderstorm,340,2012-10-04 15:35:00
10:55 AM,48.7,37.8,66,30.26,10.0,NNW,12.7,-,N/A,Thunderstorm,Mostly Cloudy,340,2012-10-04 15:55:00
11:15 AM,50.2,37.8,62,30.26,10.0,NNW,17.3,21.9,N/A,Thunderstorm,Overcast,340,2012-10-04 16:15:00
11:35 AM,50.2,36.5,59,30.26,10.0,North,16.1,20.7,N/A,,Scattered Clouds,350,2012-10-04 16:35:00
11:55 AM,50.2,36.7,60,30.26,10.0,NW,11.5,17.3,N/A,Thunderstorm,Scattered Clouds,320,2012-10-04 16:55:00
12:15 PM,53.4,36.9,53,30.27,10.0,NNW,13.8,21.9,N/A,Thunderstorm,Scattered Clouds,340,2012-10-04 17:15:00
12:35 PM,54.5,36.5,51,30.27,10.0,NNW,18.4,-,N/A,,Scattered Clouds,340,2012-10-04 17:35:00
12:55 PM,54.5,35.2,48,30.27,10.0,NNW,17.3,25.3,N/A,,Scattered Clouds,340,2012-10-04 17:55:00
1:35 PM,56.1,35.1,45,30.27,10.0,NNW,10.4,21.9,N/A,,Clear,340,2012-10-04 18:35:00
1:55 PM,56.5,34.3,43,30.26,10.0,North,17.3,26.5,N/A,,Clear,350,2012-10-04 18:55:00
2:15 PM,56.7,34.0,42,30.25,10.0,NNW,16.1,26.5,N/A,,Clear,340,2012-10-04 19:15:00
2:35 PM,56.7,33.8,42,30.24,10.0,NNW,17.3,25.3,N/A,,Clear,340,2012-10-04 19:35:00
2:55 PM,57.4,33.4,40,30.24,10.0,North,17.3,20.7,N/A,,Clear,360,2012-10-04 19:55:00
3:15 PM,58.6,33.4,39,30.23,10.0,North,13.8,-,N/A,,Clear,360,2012-10-04 20:15:00
3:35 PM,57.4,32.4,39,30.23,10.0,North,16.1,19.6,N/A,,Clear,360,2012-10-04 20:35:00
3:55 PM,58.1,33.1,39,30.24,10.0,NNW,13.8,21.9,N/A,,Clear,340,2012-10-04 20:55:00
4:15 PM,57.7,32.9,39,30.24,10.0,North,13.8,17.3,N/A,,Clear,350,2012-10-04 21:15:00
4:35 PM,58.3,32.9,38,30.24,10.0,North,11.5,17.3,N/A,,Clear,360,2012-10-04 21:35:00
4:55 PM,57.7,32.4,38,30.23,10.0,NNW,11.5,20.7,N/A,,Clear,330,2012-10-04 21:55:00
5:15 PM,57.2,32.2,39,30.23,10.0,North,10.4,17.3,N/A,,Clear,350,2012-10-04 22:15:00
5:55 PM,55.6,32.2,41,30.24,10.0,North,12.7,16.1,N/A,,Clear,350,2012-10-04 22:55:00
6:15 PM,55.4,32.5,42,30.24,10.0,North,10.4,-,N/A,,Clear,360,2012-10-04 23:15:00
6:35 PM,54.3,32.2,43,30.25,10.0,North,10.4,-,N/A,,Clear,350,2012-10-04 23:35:00
6:55 PM,52.9,32.0,45,30.26,10.0,North,6.9,-,N/A,,Clear,350,2012-10-04 23:55:00
7:15 PM,52.0,32.7,48,30.26,10.0,North,4.6,-,N/A,,Clear,350,2012-10-05 00:15:00
7:35 PM,51.3,33.3,50,30.26,10.0,NNW,6.9,-,N/A,,Clear,340,2012-10-05 00:35:00
7:55 PM,51.4,32.9,49,30.25,10.0,North,9.2,-,N/A,,Clear,360,2012-10-05 00:55:00
8:15 PM,51.3,32.7,49,30.26,10.0,North,9.2,-,N/A,,Clear,350,2012-10-05 01:15:00
8:35 PM,51.1,32.4,49,30.25,10.0,North,11.5,-,N/A,,Clear,360,2012-10-05 01:35:00
8:55 PM,50.9,32.0,48,30.26,10.0,North,12.7,-,N/A,,Clear,350,2012-10-05 01:55:00
9:15 PM,50.4,32.0,49,30.27,10.0,North,9.2,-,N/A,,Clear,350,2012-10-05 02:15:00
9:35 PM,50.2,32.0,50,30.27,10.0,North,10.4,-,N/A,,Clear,350,2012-10-05 02:35:00
9:55 PM,50.0,32.0,50,30.28,10.0,North,9.2,17.3,N/A,,Clear,350,2012-10-05 02:55:00
10:15 PM,50.0,32.0,50,30.28,10.0,North,13.8,-,N/A,,Clear,350,2012-10-05 03:15:00
10:35 PM,50.0,32.0,50,30.27,10.0,North,12.7,17.3,N/A,,Clear,10,2012-10-05 03:35:00
10:55 PM,49.6,32.0,51,30.29,10.0,NNW,9.2,-,N/A,,Clear,340,2012-10-05 03:55:00
11:15 PM,49.1,32.0,52,30.29,10.0,North,10.4,-,N/A,,Clear,360,2012-10-05 04:15:00
11:35 PM,49.1,32.0,52,30.31,10.0,North,9.2,-,N/A,,Clear,350,2012-10-05 04:35:00
11:55 PM,48.4,32.0,53,30.30,10.0,North,6.9,-,N/A,,Clear,360,2012-10-05 04:55:00